sensor_id;sensor_type;location;lat;lon;timestamp;pressure;altitude;pressure_sealevel;temperature;humidity
6028;BME280;3042;43.194;27.646;2023-02-11T00:02:03;103863.78;;;1.14;74.84
6028;BME280;3042;43.194;27.646;2023-02-11T00:04:32;103851.34;;;1.36;75.59
6028;BME280;3042;43.194;27.646;2023-02-11T00:06:59;103864.72;;;1.15;74.59
6028;BME280;3042;43.194;27.646;2023-02-11T00:09:26;103867.38;;;1.22;74.40
6028;BME280;3042;43.194;27.646;2023-02-11T00:11:53;103858.72;;;1.27;74.56
6028;BME280;3042;43.194;27.646;2023-02-11T00:14:20;103859.84;;;1.29;75.15
6028;BME280;3042;43.194;27.646;2023-02-11T00:16:47;103844.03;;;1.32;74.88
6028;BME280;3042;43.194;27.646;2023-02-11T00:19:14;103855.13;;;1.32;75.04
6028;BME280;3042;43.194;27.646;2023-02-11T00:21:43;103844.81;;;1.51;76.12
6028;BME280;3042;43.194;27.646;2023-02-11T00:24:10;103728.50;;;0.73;75.38
6028;BME280;3042;43.194;27.646;2023-02-11T00:26:37;103837.00;;;1.36;76.47
6028;BME280;3042;43.194;27.646;2023-02-11T00:29:04;103460.09;;;-0.60;75.49
6028;BME280;3042;43.194;27.646;2023-02-11T00:31:32;103830.94;;;1.48;75.61
6028;BME280;3042;43.194;27.646;2023-02-11T00:34:03;103821.38;;;1.53;76.16
6028;BME280;3042;43.194;27.646;2023-02-11T00:36:37;103828.28;;;1.54;76.97
6028;BME280;3042;43.194;27.646;2023-02-11T00:39:10;103712.31;;;0.59;76.47
6028;BME280;3042;43.194;27.646;2023-02-11T00:41:37;103836.19;;;1.30;76.88
6028;BME280;3042;43.194;27.646;2023-02-11T00:44:04;103842.31;;;1.25;76.38
6028;BME280;3042;43.194;27.646;2023-02-11T00:46:31;103820.63;;;1.09;75.44
6028;BME280;3042;43.194;27.646;2023-02-11T00:49:03;103831.09;;;1.30;75.66
6028;BME280;3042;43.194;27.646;2023-02-11T00:51:32;103847.41;;;0.99;75.06
6028;BME280;3042;43.194;27.646;2023-02-11T00:54:03;103837.19;;;1.12;75.64
6028;BME280;3042;43.194;27.646;2023-02-11T00:56:35;103873.97;;;1.01;75.08
6028;BME280;3042;43.194;27.646;2023-02-11T00:59:02;103838.63;;;0.97;75.39
6028;BME280;3042;43.194;27.646;2023-02-11T01:01:29;103833.25;;;1.01;75.13
6028;BME280;3042;43.194;27.646;2023-02-11T01:03:57;103833.53;;;0.97;75.47
6028;BME280;3042;43.194;27.646;2023-02-11T01:06:24;103827.84;;;0.80;75.53
6028;BME280;3042;43.194;27.646;2023-02-11T01:08:52;103808.41;;;1.06;75.63
6028;BME280;3042;43.194;27.646;2023-02-11T01:11:22;103820.44;;;0.94;75.29
6028;BME280;3042;43.194;27.646;2023-02-11T01:13:50;103821.13;;;1.06;75.94
6028;BME280;3042;43.194;27.646;2023-02-11T01:16:19;103816.84;;;0.99;75.72
6028;BME280;3042;43.194;27.646;2023-02-11T01:18:46;103828.84;;;0.75;75.34
6028;BME280;3042;43.194;27.646;2023-02-11T01:21:13;103828.84;;;0.75;75.09
6028;BME280;3042;43.194;27.646;2023-02-11T01:23:40;103829.63;;;0.55;74.96
6028;BME280;3042;43.194;27.646;2023-02-11T01:26:08;103821.38;;;0.51;75.53
6028;BME280;3042;43.194;27.646;2023-02-11T01:28:39;103754.47;;;0.13;74.94
6028;BME280;3042;43.194;27.646;2023-02-11T01:31:13;103821.44;;;0.32;74.91
6028;BME280;3042;43.194;27.646;2023-02-11T01:33:40;103827.91;;;-0.14;74.32
6028;BME280;3042;43.194;27.646;2023-02-11T01:36:09;103821.19;;;-0.13;75.16
6028;BME280;3042;43.194;27.646;2023-02-11T01:38:36;103666.19;;;-0.94;75.37
6028;BME280;3042;43.194;27.646;2023-02-11T01:41:10;103782.50;;;-0.05;75.46
6028;BME280;3042;43.194;27.646;2023-02-11T01:43:45;103808.00;;;0.20;75.82
6028;BME280;3042;43.194;27.646;2023-02-11T01:46:32;103791.16;;;0.34;76.39
6028;BME280;3042;43.194;27.646;2023-02-11T01:49:05;103805.16;;;0.25;76.33
6028;BME280;3042;43.194;27.646;2023-02-11T01:51:36;103762.50;;;0.04;76.85
6028;BME280;3042;43.194;27.646;2023-02-11T01:54:06;103811.41;;;0.08;75.97
6028;BME280;3042;43.194;27.646;2023-02-11T01:56:53;103797.19;;;0.16;75.92
6028;BME280;3042;43.194;27.646;2023-02-11T01:59:42;103792.66;;;0.26;76.29
6028;BME280;3042;43.194;27.646;2023-02-11T02:02:15;103800.28;;;0.26;76.05
6028;BME280;3042;43.194;27.646;2023-02-11T02:04:47;103804.31;;;0.18;75.95
6028;BME280;3042;43.194;27.646;2023-02-11T02:07:25;103798.13;;;0.16;76.15
6028;BME280;3042;43.194;27.646;2023-02-11T02:09:59;103808.75;;;0.01;76.47
6028;BME280;3042;43.194;27.646;2023-02-11T02:12:28;103810.00;;;-0.21;76.40
6028;BME280;3042;43.194;27.646;2023-02-11T02:15:17;103794.59;;;0.22;77.07
6028;BME280;3042;43.194;27.646;2023-02-11T02:17:55;103802.22;;;0.22;77.02
6028;BME280;3042;43.194;27.646;2023-02-11T02:20:51;103806.47;;;0.15;77.21
6028;BME280;3042;43.194;27.646;2023-02-11T02:23:28;103804.00;;;0.10;77.41
6028;BME280;3042;43.194;27.646;2023-02-11T02:26:12;103807.19;;;0.14;77.20
6028;BME280;3042;43.194;27.646;2023-02-11T02:29:18;103798.31;;;0.18;76.88
6028;BME280;3042;43.194;27.646;2023-02-11T02:31:58;103827.41;;;0.20;76.52
6028;BME280;3042;43.194;27.646;2023-02-11T02:34:35;103808.91;;;0.21;76.89
6028;BME280;3042;43.194;27.646;2023-02-11T02:37:07;103801.16;;;0.14;77.47
6028;BME280;3042;43.194;27.646;2023-02-11T02:39:36;103814.84;;;-0.04;76.78
6028;BME280;3042;43.194;27.646;2023-02-11T02:42:04;103815.75;;;-0.04;76.79
6028;BME280;3042;43.194;27.646;2023-02-11T02:44:31;103652.81;;;-1.12;76.01
6028;BME280;3042;43.194;27.646;2023-02-11T02:46:59;103717.38;;;-0.73;76.25
6028;BME280;3042;43.194;27.646;2023-02-11T02:49:26;103850.16;;;-1.03;75.05
6028;BME280;3042;43.194;27.646;2023-02-11T02:52:05;103823.31;;;-0.53;76.17
6028;BME280;3042;43.194;27.646;2023-02-11T02:54:53;103769.00;;;-0.67;76.13
6028;BME280;3042;43.194;27.646;2023-02-11T02:57:31;103808.38;;;-0.39;76.17
6028;BME280;3042;43.194;27.646;2023-02-11T03:00:13;103817.25;;;-0.48;75.79
6028;BME280;3042;43.194;27.646;2023-02-11T03:02:51;103822.47;;;-0.59;75.58
6028;BME280;3042;43.194;27.646;2023-02-11T03:05:31;103818.78;;;-0.61;76.32
6028;BME280;3042;43.194;27.646;2023-02-11T03:08:07;103814.06;;;-0.53;76.17
6028;BME280;3042;43.194;27.646;2023-02-11T03:10:36;103811.31;;;-0.54;75.77
6028;BME280;3042;43.194;27.646;2023-02-11T03:13:05;103814.84;;;-0.59;75.71
6028;BME280;3042;43.194;27.646;2023-02-11T03:15:37;103764.91;;;-0.72;76.15
6028;BME280;3042;43.194;27.646;2023-02-11T03:18:07;103810.78;;;-0.46;75.69
6028;BME280;3042;43.194;27.646;2023-02-11T03:20:36;103819.66;;;-0.55;75.58
6028;BME280;3042;43.194;27.646;2023-02-11T03:23:10;103813.94;;;-0.41;75.63
6028;BME280;3042;43.194;27.646;2023-02-11T03:25:43;103676.69;;;-1.22;75.64
6028;BME280;3042;43.194;27.646;2023-02-11T03:28:17;103814.16;;;-0.58;75.86
6028;BME280;3042;43.194;27.646;2023-02-11T03:30:51;103825.72;;;-0.60;76.02
6028;BME280;3042;43.194;27.646;2023-02-11T03:33:24;103814.00;;;-0.47;76.34
6028;BME280;3042;43.194;27.646;2023-02-11T03:35:55;103815.44;;;-0.49;76.16
6028;BME280;3042;43.194;27.646;2023-02-11T03:38:29;103804.59;;;-0.35;76.60
6028;BME280;3042;43.194;27.646;2023-02-11T03:40:58;103811.03;;;-0.50;76.50
6028;BME280;3042;43.194;27.646;2023-02-11T03:43:29;103818.78;;;-0.61;76.66
6028;BME280;3042;43.194;27.646;2023-02-11T03:45:58;103818.06;;;-0.79;76.10
6028;BME280;3042;43.194;27.646;2023-02-11T03:48:29;103518.59;;;-2.50;76.80
6028;BME280;3042;43.194;27.646;2023-02-11T03:50:58;103817.00;;;-0.68;76.86
6028;BME280;3042;43.194;27.646;2023-02-11T03:53:28;103809.78;;;-0.59;77.09
6028;BME280;3042;43.194;27.646;2023-02-11T03:55:57;103437.22;;;-2.83;77.30
6028;BME280;3042;43.194;27.646;2023-02-11T03:58:26;103819.69;;;-0.61;77.71
6028;BME280;3042;43.194;27.646;2023-02-11T04:00:53;103655.56;;;-1.53;77.82
6028;BME280;3042;43.194;27.646;2023-02-11T04:03:20;103773.53;;;-0.77;77.98
6028;BME280;3042;43.194;27.646;2023-02-11T04:05:51;103705.81;;;-0.89;77.83
6028;BME280;3042;43.194;27.646;2023-02-11T04:08:30;103785.09;;;-0.42;77.88
6028;BME280;3042;43.194;27.646;2023-02-11T04:11:06;103749.97;;;-0.57;77.82
6028;BME280;3042;43.194;27.646;2023-02-11T04:13:42;103762.28;;;-0.48;77.84
6028;BME280;3042;43.194;27.646;2023-02-11T04:16:16;103796.22;;;-0.29;78.34
6028;BME280;3042;43.194;27.646;2023-02-11T04:18:50;103790.59;;;-0.39;78.19
6028;BME280;3042;43.194;27.646;2023-02-11T04:21:24;103792.00;;;-0.59;77.66
6028;BME280;3042;43.194;27.646;2023-02-11T04:24:00;103791.13;;;-0.47;78.02
6028;BME280;3042;43.194;27.646;2023-02-11T04:26:36;103790.47;;;-0.46;77.68
6028;BME280;3042;43.194;27.646;2023-02-11T04:29:09;103475.34;;;-2.52;77.63
6028;BME280;3042;43.194;27.646;2023-02-11T04:31:44;103785.25;;;-0.53;77.98
6028;BME280;3042;43.194;27.646;2023-02-11T04:34:16;103794.94;;;-0.56;78.10
6028;BME280;3042;43.194;27.646;2023-02-11T04:36:52;103783.19;;;-0.56;78.31
6028;BME280;3042;43.194;27.646;2023-02-11T04:39:30;103621.97;;;-1.33;78.43
6028;BME280;3042;43.194;27.646;2023-02-11T04:42:05;103780.44;;;-0.57;78.48
6028;BME280;3042;43.194;27.646;2023-02-11T04:44:40;103779.03;;;-0.55;78.15
6028;BME280;3042;43.194;27.646;2023-02-11T04:47:15;103776.75;;;-0.59;79.28
6028;BME280;3042;43.194;27.646;2023-02-11T04:49:50;103726.34;;;-0.69;78.85
6028;BME280;3042;43.194;27.646;2023-02-11T04:52:25;103778.94;;;-0.50;78.47
6028;BME280;3042;43.194;27.646;2023-02-11T04:55:02;103708.34;;;-0.71;78.34
6028;BME280;3042;43.194;27.646;2023-02-11T04:57:31;103780.28;;;-0.65;78.33
6028;BME280;3042;43.194;27.646;2023-02-11T04:59:58;103767.88;;;-0.69;78.64
6028;BME280;3042;43.194;27.646;2023-02-11T05:02:25;103774.56;;;-0.69;78.71
6028;BME280;3042;43.194;27.646;2023-02-11T05:04:53;103776.06;;;-0.58;79.20
6028;BME280;3042;43.194;27.646;2023-02-11T05:07:20;103769.00;;;-0.67;79.00
6028;BME280;3042;43.194;27.646;2023-02-11T05:09:47;103602.16;;;-1.78;78.85
6028;BME280;3042;43.194;27.646;2023-02-11T05:12:16;103773.44;;;-0.53;80.00
6028;BME280;3042;43.194;27.646;2023-02-11T05:14:43;103622.75;;;-1.45;79.56
6028;BME280;3042;43.194;27.646;2023-02-11T05:17:11;103668.88;;;-1.06;79.56
6028;BME280;3042;43.194;27.646;2023-02-11T05:19:38;103775.63;;;-0.61;79.22
6028;BME280;3042;43.194;27.646;2023-02-11T05:22:07;103773.16;;;-0.67;79.44
6028;BME280;3042;43.194;27.646;2023-02-11T05:24:34;103773.53;;;-0.58;79.54
6028;BME280;3042;43.194;27.646;2023-02-11T05:27:01;103775.75;;;-0.54;79.22
6028;BME280;3042;43.194;27.646;2023-02-11T05:29:29;103670.31;;;-1.74;78.09
6028;BME280;3042;43.194;27.646;2023-02-11T05:31:57;103794.06;;;-1.47;78.38
6028;BME280;3042;43.194;27.646;2023-02-11T05:34:24;103755.75;;;-1.43;79.07
6028;BME280;3042;43.194;27.646;2023-02-11T05:36:51;103772.59;;;-0.96;79.00
6028;BME280;3042;43.194;27.646;2023-02-11T05:39:18;103764.78;;;-0.79;79.28
6028;BME280;3042;43.194;27.646;2023-02-11T05:41:45;103767.06;;;-0.99;78.68
6028;BME280;3042;43.194;27.646;2023-02-11T05:44:12;103762.09;;;-0.68;79.18
6028;BME280;3042;43.194;27.646;2023-02-11T05:46:41;103588.13;;;-1.58;79.42
6028;BME280;3042;43.194;27.646;2023-02-11T05:49:08;103757.72;;;-0.69;79.55
6028;BME280;3042;43.194;27.646;2023-02-11T05:51:35;103760.16;;;-0.45;80.03
6028;BME280;3042;43.194;27.646;2023-02-11T05:54:02;103745.75;;;-0.20;80.77
6028;BME280;3042;43.194;27.646;2023-02-11T05:56:29;103702.41;;;-0.09;81.33
6028;BME280;3042;43.194;27.646;2023-02-11T05:58:57;103722.09;;;0.56;82.19
6028;BME280;3042;43.194;27.646;2023-02-11T06:01:24;103620.06;;;0.22;82.41
6028;BME280;3042;43.194;27.646;2023-02-11T06:03:53;103709.06;;;1.19;83.74
6028;BME280;3042;43.194;27.646;2023-02-11T06:06:20;103710.75;;;1.38;83.84
6028;BME280;3042;43.194;27.646;2023-02-11T06:08:47;103717.09;;;1.55;83.48
6028;BME280;3042;43.194;27.646;2023-02-11T06:11:14;103698.16;;;1.93;83.79
6028;BME280;3042;43.194;27.646;2023-02-11T06:13:42;103698.25;;;2.07;82.88
6028;BME280;3042;43.194;27.646;2023-02-11T06:16:09;103704.13;;;2.13;81.70
6028;BME280;3042;43.194;27.646;2023-02-11T06:18:36;103703.47;;;2.21;80.60
6028;BME280;3042;43.194;27.646;2023-02-11T06:21:07;103694.50;;;2.45;79.57
6028;BME280;3042;43.194;27.646;2023-02-11T06:23:34;103702.06;;;2.30;78.51
6028;BME280;3042;43.194;27.646;2023-02-11T06:26:02;103702.72;;;2.22;78.49
6028;BME280;3042;43.194;27.646;2023-02-11T06:28:30;103703.59;;;2.16;77.92
6028;BME280;3042;43.194;27.646;2023-02-11T06:30:57;103687.75;;;2.45;78.41
6028;BME280;3042;43.194;27.646;2023-02-11T06:33:24;103686.00;;;2.59;79.05
6028;BME280;3042;43.194;27.646;2023-02-11T06:35:51;103681.53;;;2.78;78.87
6028;BME280;3042;43.194;27.646;2023-02-11T06:38:20;103616.78;;;2.70;79.02
6028;BME280;3042;43.194;27.646;2023-02-11T06:40:48;103088.28;;;-0.23;78.78
6028;BME280;3042;43.194;27.646;2023-02-11T06:43:15;103541.72;;;2.41;78.70
6028;BME280;3042;43.194;27.646;2023-02-11T06:45:42;103670.38;;;3.26;78.76
6028;BME280;3042;43.194;27.646;2023-02-11T06:48:09;103670.75;;;3.29;78.71
6028;BME280;3042;43.194;27.646;2023-02-11T06:50:37;103675.31;;;3.38;78.62
6028;BME280;3042;43.194;27.646;2023-02-11T06:53:04;103665.31;;;3.40;78.60
6028;BME280;3042;43.194;27.646;2023-02-11T06:55:33;103645.59;;;3.89;79.63
6028;BME280;3042;43.194;27.646;2023-02-11T06:58:00;103652.88;;;3.79;78.95
6028;BME280;3042;43.194;27.646;2023-02-11T07:00:27;103656.53;;;3.95;79.20
6028;BME280;3042;43.194;27.646;2023-02-11T07:02:54;103648.09;;;4.25;79.38
6028;BME280;3042;43.194;27.646;2023-02-11T07:05:21;103648.00;;;4.47;79.25
6028;BME280;3042;43.194;27.646;2023-02-11T07:07:48;103654.94;;;4.62;79.09
6028;BME280;3042;43.194;27.646;2023-02-11T07:10:15;103637.09;;;4.85;78.43
6028;BME280;3042;43.194;27.646;2023-02-11T07:12:44;103545.81;;;4.48;78.56
6028;BME280;3042;43.194;27.646;2023-02-11T07:15:11;103636.78;;;5.05;78.31
6028;BME280;3042;43.194;27.646;2023-02-11T07:17:38;103633.72;;;5.23;78.24
6028;BME280;3042;43.194;27.646;2023-02-11T07:20:05;103620.47;;;5.35;77.82
6028;BME280;3042;43.194;27.646;2023-02-11T07:22:33;103621.03;;;5.32;77.17
6028;BME280;3042;43.194;27.646;2023-02-11T07:25:00;103630.22;;;5.53;76.79
6028;BME280;3042;43.194;27.646;2023-02-11T07:27:28;103621.06;;;5.55;76.87
6028;BME280;3042;43.194;27.646;2023-02-11T07:29:57;103599.19;;;5.82;76.53
6028;BME280;3042;43.194;27.646;2023-02-11T07:32:24;103606.94;;;5.75;75.76
6028;BME280;3042;43.194;27.646;2023-02-11T07:34:51;103602.00;;;5.92;75.86
6028;BME280;3042;43.194;27.646;2023-02-11T07:37:18;103604.81;;;6.09;75.46
6028;BME280;3042;43.194;27.646;2023-02-11T07:39:45;103242.53;;;3.98;73.99
6028;BME280;3042;43.194;27.646;2023-02-11T07:42:12;103562.56;;;5.76;73.71
6028;BME280;3042;43.194;27.646;2023-02-11T07:44:39;103592.78;;;6.01;73.73
6028;BME280;3042;43.194;27.646;2023-02-11T07:47:08;103584.09;;;6.24;73.95
6028;BME280;3042;43.194;27.646;2023-02-11T07:49:35;103590.50;;;6.11;73.48
6028;BME280;3042;43.194;27.646;2023-02-11T07:52:02;103572.25;;;6.33;73.61
6028;BME280;3042;43.194;27.646;2023-02-11T07:54:29;103572.94;;;6.39;73.04
6028;BME280;3042;43.194;27.646;2023-02-11T07:56:56;103567.25;;;6.50;73.78
6028;BME280;3042;43.194;27.646;2023-02-11T07:59:23;103575.06;;;6.43;73.37
6028;BME280;3042;43.194;27.646;2023-02-11T08:01:50;103568.31;;;6.52;74.08
6028;BME280;3042;43.194;27.646;2023-02-11T08:04:18;103560.38;;;6.58;73.83
6028;BME280;3042;43.194;27.646;2023-02-11T08:06:45;103566.25;;;6.41;74.05
6028;BME280;3042;43.194;27.646;2023-02-11T08:09:14;103565.13;;;6.46;73.89
6028;BME280;3042;43.194;27.646;2023-02-11T08:11:42;103566.72;;;6.37;73.64
6028;BME280;3042;43.194;27.646;2023-02-11T08:14:10;103560.59;;;6.28;74.04
6028;BME280;3042;43.194;27.646;2023-02-11T08:16:37;103560.91;;;6.47;74.13
6028;BME280;3042;43.194;27.646;2023-02-11T08:19:07;103557.13;;;6.68;73.96
6028;BME280;3042;43.194;27.646;2023-02-11T08:21:37;103550.81;;;6.73;74.04
6028;BME280;3042;43.194;27.646;2023-02-11T08:24:05;103540.72;;;6.83;73.65
6028;BME280;3042;43.194;27.646;2023-02-11T08:26:33;103461.47;;;6.21;72.47
6028;BME280;3042;43.194;27.646;2023-02-11T08:29:02;103527.66;;;6.97;73.08
6028;BME280;3042;43.194;27.646;2023-02-11T08:31:34;103528.19;;;7.11;73.11
6028;BME280;3042;43.194;27.646;2023-02-11T08:34:01;103533.97;;;6.92;72.42
6028;BME280;3042;43.194;27.646;2023-02-11T08:36:29;103518.72;;;7.27;72.97
6028;BME280;3042;43.194;27.646;2023-02-11T08:38:59;103503.09;;;7.59;73.37
6028;BME280;3042;43.194;27.646;2023-02-11T08:41:28;103516.66;;;7.40;72.08
6028;BME280;3042;43.194;27.646;2023-02-11T08:43:55;103512.13;;;7.47;71.04
6028;BME280;3042;43.194;27.646;2023-02-11T08:46:22;103513.38;;;7.50;71.59
6028;BME280;3042;43.194;27.646;2023-02-11T08:48:49;103495.25;;;7.83;71.12
6028;BME280;3042;43.194;27.646;2023-02-11T08:51:18;103482.56;;;8.11;70.63
6028;BME280;3042;43.194;27.646;2023-02-11T08:53:46;103471.66;;;8.22;70.70
6028;BME280;3042;43.194;27.646;2023-02-11T08:56:16;103435.59;;;8.31;70.32
6028;BME280;3042;43.194;27.646;2023-02-11T08:58:43;103459.50;;;8.39;68.13
6028;BME280;3042;43.194;27.646;2023-02-11T09:01:11;103460.56;;;8.23;65.14
6028;BME280;3042;43.194;27.646;2023-02-11T09:03:38;103447.97;;;8.61;65.22
6028;BME280;3042;43.194;27.646;2023-02-11T09:06:06;103405.03;;;8.71;64.89
6028;BME280;3042;43.194;27.646;2023-02-11T09:08:34;103368.59;;;8.40;63.70
6028;BME280;3042;43.194;27.646;2023-02-11T09:11:02;103418.13;;;8.91;63.71
6028;BME280;3042;43.194;27.646;2023-02-11T09:13:31;103430.94;;;8.81;62.84
6028;BME280;3042;43.194;27.646;2023-02-11T09:15:59;103415.84;;;8.94;63.34
6028;BME280;3042;43.194;27.646;2023-02-11T09:18:26;103409.16;;;8.96;62.80
6028;BME280;3042;43.194;27.646;2023-02-11T09:21:01;103404.13;;;9.06;62.49
6028;BME280;3042;43.194;27.646;2023-02-11T09:23:28;103399.06;;;9.08;62.41
6028;BME280;3042;43.194;27.646;2023-02-11T09:25:55;103410.88;;;8.87;61.94
6028;BME280;3042;43.194;27.646;2023-02-11T09:28:22;103404.44;;;9.01;62.71
6028;BME280;3042;43.194;27.646;2023-02-11T09:30:50;103393.25;;;9.19;62.51
6028;BME280;3042;43.194;27.646;2023-02-11T09:33:17;103372.22;;;9.52;62.64
6028;BME280;3042;43.194;27.646;2023-02-11T09:35:44;103361.91;;;9.52;61.47
6028;BME280;3042;43.194;27.646;2023-02-11T09:38:11;103372.41;;;9.26;61.16
6028;BME280;3042;43.194;27.646;2023-02-11T09:40:41;103340.66;;;9.84;61.66
6028;BME280;3042;43.194;27.646;2023-02-11T09:43:11;103236.88;;;9.30;61.05
6028;BME280;3042;43.194;27.646;2023-02-11T09:45:43;103235.25;;;9.22;60.73
6028;BME280;3042;43.194;27.646;2023-02-11T09:48:14;103191.75;;;9.35;60.90
6028;BME280;3042;43.194;27.646;2023-02-11T09:50:43;103325.28;;;10.05;60.29
6028;BME280;3042;43.194;27.646;2023-02-11T09:53:18;103314.47;;;10.19;60.73
6028;BME280;3042;43.194;27.646;2023-02-11T09:55:52;103301.50;;;10.38;60.37
6028;BME280;3042;43.194;27.646;2023-02-11T09:58:25;103296.75;;;10.53;60.67
6028;BME280;3042;43.194;27.646;2023-02-11T10:01:02;103295.19;;;10.55;60.35
6028;BME280;3042;43.194;27.646;2023-02-11T10:03:44;103278.94;;;10.87;60.89
6028;BME280;3042;43.194;27.646;2023-02-11T10:06:36;103272.47;;;10.92;59.99
6028;BME280;3042;43.194;27.646;2023-02-11T10:09:14;103283.84;;;10.73;60.21
6028;BME280;3042;43.194;27.646;2023-02-11T10:11:54;103262.66;;;10.98;60.13
6028;BME280;3042;43.194;27.646;2023-02-11T10:14:45;103212.22;;;10.72;59.71
6028;BME280;3042;43.194;27.646;2023-02-11T10:17:20;103269.63;;;10.89;59.64
6028;BME280;3042;43.194;27.646;2023-02-11T10:20:05;103245.56;;;10.80;59.16
6028;BME280;3042;43.194;27.646;2023-02-11T10:22:41;102992.28;;;9.36;58.91
6028;BME280;3042;43.194;27.646;2023-02-11T10:25:19;103235.56;;;11.15;59.26
6028;BME280;3042;43.194;27.646;2023-02-11T10:27:47;103232.84;;;11.13;59.10
6028;BME280;3042;43.194;27.646;2023-02-11T10:30:23;103224.25;;;11.35;58.92
6028;BME280;3042;43.194;27.646;2023-02-11T10:32:56;103231.81;;;11.22;58.91
6028;BME280;3042;43.194;27.646;2023-02-11T10:35:27;103227.13;;;11.28;58.65
6028;BME280;3042;43.194;27.646;2023-02-11T10:37:54;103214.53;;;11.43;58.32
6028;BME280;3042;43.194;27.646;2023-02-11T10:40:25;103217.28;;;11.34;57.97
6028;BME280;3042;43.194;27.646;2023-02-11T10:42:56;103213.06;;;11.46;58.35
6028;BME280;3042;43.194;27.646;2023-02-11T10:45:28;103219.50;;;11.61;58.16
6028;BME280;3042;43.194;27.646;2023-02-11T10:47:56;103199.53;;;11.71;57.71
6028;BME280;3042;43.194;27.646;2023-02-11T10:50:25;103186.00;;;11.75;57.53
6028;BME280;3042;43.194;27.646;2023-02-11T10:53:10;103184.94;;;11.83;56.93
6028;BME280;3042;43.194;27.646;2023-02-11T10:55:48;103193.69;;;11.73;56.47
6028;BME280;3042;43.194;27.646;2023-02-11T10:58:23;103173.28;;;11.88;57.28
6028;BME280;3042;43.194;27.646;2023-02-11T11:00:52;103171.72;;;11.90;57.06
6028;BME280;3042;43.194;27.646;2023-02-11T11:03:22;103147.69;;;12.15;56.68
6028;BME280;3042;43.194;27.646;2023-02-11T11:05:50;103138.75;;;12.45;57.07
6028;BME280;3042;43.194;27.646;2023-02-11T11:08:19;103150.13;;;12.35;56.34
6028;BME280;3042;43.194;27.646;2023-02-11T11:13:28;103098.97;;;12.44;56.04
6028;BME280;3042;43.194;27.646;2023-02-11T11:16:17;103133.59;;;12.68;55.05
6028;BME280;3042;43.194;27.646;2023-02-11T11:18:46;102949.00;;;11.46;54.48
6028;BME280;3042;43.194;27.646;2023-02-11T11:21:17;103139.91;;;12.15;53.35
6028;BME280;3042;43.194;27.646;2023-02-11T11:23:53;103090.34;;;12.22;54.25
6028;BME280;3042;43.194;27.646;2023-02-11T11:26:21;103123.66;;;12.39;54.21
6028;BME280;3042;43.194;27.646;2023-02-11T11:28:55;103121.97;;;12.52;53.29
6028;BME280;3042;43.194;27.646;2023-02-11T11:31:26;103086.47;;;12.39;53.59
6028;BME280;3042;43.194;27.646;2023-02-11T11:33:56;103102.47;;;12.80;53.03
6028;BME280;3042;43.194;27.646;2023-02-11T11:36:31;103106.06;;;12.59;51.98
6028;BME280;3042;43.194;27.646;2023-02-11T11:39:02;103112.59;;;12.30;51.89
6028;BME280;3042;43.194;27.646;2023-02-11T11:41:32;103091.41;;;12.71;52.06
6028;BME280;3042;43.194;27.646;2023-02-11T11:44:03;103073.56;;;12.99;51.89
6028;BME280;3042;43.194;27.646;2023-02-11T11:46:33;103070.06;;;12.99;51.83
6028;BME280;3042;43.194;27.646;2023-02-11T11:49:06;103061.84;;;13.04;52.33
6028;BME280;3042;43.194;27.646;2023-02-11T11:51:36;103055.16;;;13.08;51.81
6028;BME280;3042;43.194;27.646;2023-02-11T11:54:11;103046.28;;;13.04;51.54
6028;BME280;3042;43.194;27.646;2023-02-11T11:56:44;103051.69;;;13.07;51.16
6028;BME280;3042;43.194;27.646;2023-02-11T11:59:13;103057.56;;;12.93;51.00
6028;BME280;3042;43.194;27.646;2023-02-11T12:01:57;103032.47;;;13.17;51.40
6028;BME280;3042;43.194;27.646;2023-02-11T12:04:42;103039.19;;;13.02;50.43
6028;BME280;3042;43.194;27.646;2023-02-11T12:07:21;103032.47;;;13.17;49.89
6028;BME280;3042;43.194;27.646;2023-02-11T12:10:14;103024.59;;;13.27;50.55
6028;BME280;3042;43.194;27.646;2023-02-11T12:12:48;103012.81;;;13.33;49.83
6028;BME280;3042;43.194;27.646;2023-02-11T12:15:28;102998.72;;;13.54;49.83
6028;BME280;3042;43.194;27.646;2023-02-11T12:18:08;103005.81;;;13.32;48.73
6028;BME280;3042;43.194;27.646;2023-02-11T12:20:50;102998.28;;;13.48;48.08
6028;BME280;3042;43.194;27.646;2023-02-11T12:23:32;102989.72;;;13.49;48.09
6028;BME280;3042;43.194;27.646;2023-02-11T12:26:12;102901.25;;;13.09;48.73
6028;BME280;3042;43.194;27.646;2023-02-11T12:28:51;102977.38;;;13.71;49.10
6028;BME280;3042;43.194;27.646;2023-02-11T12:31:26;102977.66;;;13.63;49.11
6028;BME280;3042;43.194;27.646;2023-02-11T12:34:09;102968.78;;;13.72;48.41
6028;BME280;3042;43.194;27.646;2023-02-11T12:37:03;102969.00;;;13.76;49.00
6028;BME280;3042;43.194;27.646;2023-02-11T12:39:41;102645.88;;;12.03;49.13
6028;BME280;3042;43.194;27.646;2023-02-11T12:42:31;102961.00;;;13.86;48.73
6028;BME280;3042;43.194;27.646;2023-02-11T12:45:23;102962.84;;;14.00;48.59
6028;BME280;3042;43.194;27.646;2023-02-11T12:48:03;102958.03;;;14.20;47.91
6028;BME280;3042;43.194;27.646;2023-02-11T12:50:40;102949.56;;;14.35;48.05
6028;BME280;3042;43.194;27.646;2023-02-11T12:53:45;102958.03;;;14.20;48.10
6028;BME280;3042;43.194;27.646;2023-02-11T12:56:19;102960.44;;;14.03;47.96
6028;BME280;3042;43.194;27.646;2023-02-11T12:58:52;102953.03;;;14.23;47.57
6028;BME280;3042;43.194;27.646;2023-02-11T13:01:23;102942.03;;;14.40;47.11
6028;BME280;3042;43.194;27.646;2023-02-11T13:03:54;102941.00;;;14.51;46.34
6028;BME280;3042;43.194;27.646;2023-02-11T13:06:29;102937.91;;;14.44;45.93
6028;BME280;3042;43.194;27.646;2023-02-11T13:09:01;102557.47;;;12.51;46.31
6028;BME280;3042;43.194;27.646;2023-02-11T13:11:34;102922.81;;;14.93;46.37
6028;BME280;3042;43.194;27.646;2023-02-11T13:14:09;102927.66;;;15.15;46.60
6028;BME280;3042;43.194;27.646;2023-02-11T13:16:40;102929.63;;;15.19;46.03
6028;BME280;3042;43.194;27.646;2023-02-11T13:19:16;102926.13;;;15.18;46.04
6028;BME280;3042;43.194;27.646;2023-02-11T13:22:00;102932.38;;;14.79;45.76
6028;BME280;3042;43.194;27.646;2023-02-11T13:24:36;102925.56;;;14.81;45.00
6028;BME280;3042;43.194;27.646;2023-02-11T13:27:11;102930.28;;;14.87;45.20
6028;BME280;3042;43.194;27.646;2023-02-11T13:30:07;102892.59;;;15.10;45.28
6028;BME280;3042;43.194;27.646;2023-02-11T13:36:15;102924.06;;;14.85;45.77